Time;durP1;ratioP1;P1;durP2;ratioP2;P2;SDS_P1;SDS_P2;PMS_P1;PMS_P2;Temp;Humidity;BMP_temperature;BMP_pressure;BME280_temperature;BME280_humidity;BME280_pressure;Samples;Min_cycle;Max_cycle;Signal;HPM_P1;HPM_P2
2021/12/08 00:00:28;;;;;;;6.78;1.83;;;5.60;99.50;;;;;;5051461;28;20499;-79
2021/12/08 00:02:55;;;;;;;5.93;2.13;;;5.60;99.50;;;;;;5050966;28;20028;-80
2021/12/08 00:05:22;;;;;;;6.90;1.88;;;5.60;99.60;;;;;;5048325;28;20033;-79
2021/12/08 00:07:49;;;;;;;7.65;1.88;;;5.60;99.60;;;;;;5051556;28;20025;-77
2021/12/08 00:13:14;;;;;;;10.52;2.03;;;5.70;99.60;;;;;;5045383;28;20029;-80
2021/12/08 00:15:47;;;;;;;6.72;1.75;;;5.70;99.60;;;;;;5051073;28;20435;-79
2021/12/08 00:18:16;;;;;;;6.05;2.15;;;5.60;99.60;;;;;;5048095;28;20055;-81
2021/12/08 00:20:43;;;;;;;9.63;2.35;;;5.70;99.50;;;;;;5051839;28;20064;-75
2021/12/08 00:23:09;;;;;;;9.20;1.85;;;5.60;99.60;;;;;;5054643;28;20021;-77
2021/12/08 00:25:36;;;;;;;8.85;2.40;;;5.50;99.70;;;;;;5055842;28;20025;-78
2021/12/08 00:28:03;;;;;;;9.18;1.85;;;5.50;99.90;;;;;;5056251;28;20025;-81
2021/12/08 00:30:30;;;;;;;6.85;2.13;;;5.50;99.90;;;;;;5055943;28;20029;-81
2021/12/08 00:32:58;;;;;;;8.75;2.47;;;5.50;99.90;;;;;;5071575;28;20029;-79
2021/12/08 00:35:24;;;;;;;6.97;2.30;;;5.50;99.90;;;;;;5076951;28;20016;-79
2021/12/08 00:37:50;;;;;;;5.45;2.28;;;5.50;99.90;;;;;;5056097;28;20036;-82
2021/12/08 00:40:18;;;;;;;13.30;4.43;;;5.50;99.90;;;;;;5055290;28;20111;-81
2021/12/08 00:42:45;;;;;;;6.53;2.05;;;5.50;99.90;;;;;;5054718;28;20468;-83
2021/12/08 00:45:13;;;;;;;7.78;2.45;;;5.60;99.90;;;;;;5055101;28;20384;-88
2021/12/08 00:47:38;;;;;;;8.05;2.30;;;5.60;99.90;;;;;;5055802;28;20036;-85
2021/12/08 00:50:07;;;;;;;8.93;2.30;;;5.60;99.90;;;;;;5055643;28;20017;-79
2021/12/08 00:52:32;;;;;;;9.85;2.92;;;5.60;99.90;;;;;;5054984;28;20044;-86
2021/12/08 00:54:59;;;;;;;5.05;2.13;;;5.60;99.90;;;;;;5054561;28;20016;-87
2021/12/08 00:57:26;;;;;;;5.63;2.30;;;5.60;99.90;;;;;;5054548;28;20052;-86
2021/12/08 00:59:51;;;;;;;6.53;2.47;;;5.50;99.90;;;;;;5056332;28;20028;-93
2021/12/08 01:02:17;;;;;;;10.23;3.15;;;5.50;99.90;;;;;;5056968;28;20029;-89
2021/12/08 01:04:43;;;;;;;8.90;2.55;;;5.50;99.90;;;;;;5056807;28;20033;-89
2021/12/08 01:07:12;;;;;;;4.72;2.17;;;5.50;99.90;;;;;;5057662;28;20028;-89
2021/12/08 01:09:41;;;;;;;10.13;2.78;;;5.50;99.90;;;;;;5057490;28;20507;-90
2021/12/08 01:12:08;;;;;;;6.30;2.67;;;5.50;99.90;;;;;;5055936;28;20086;-86
2021/12/08 01:14:34;;;;;;;8.90;2.67;;;5.50;99.90;;;;;;5055492;28;20060;-83
2021/12/08 01:17:02;;;;;;;9.20;2.70;;;5.50;99.90;;;;;;5055192;28;20025;-83
2021/12/08 01:19:28;;;;;;;7.95;3.33;;;5.50;99.90;;;;;;5054867;28;20068;-87
2021/12/08 01:21:54;;;;;;;8.35;3.28;;;5.50;99.90;;;;;;5042091;28;20049;-85
2021/12/08 01:24:20;;;;;;;7.57;2.50;;;5.60;99.90;;;;;;5020716;28;20038;-84
2021/12/08 01:26:47;;;;;;;5.63;2.42;;;5.60;99.90;;;;;;5021706;28;20026;-84
2021/12/08 01:29:13;;;;;;;7.03;2.30;;;5.60;99.90;;;;;;5026529;28;20033;-85
2021/12/08 01:31:41;;;;;;;6.43;2.95;;;5.60;99.90;;;;;;5042525;28;20040;-82
2021/12/08 01:34:08;;;;;;;8.35;2.40;;;5.70;99.90;;;;;;5045405;28;20469;-85
2021/12/08 01:36:34;;;;;;;5.57;2.15;;;5.60;99.90;;;;;;5023013;28;20053;-82
2021/12/08 01:39:00;;;;;;;8.07;2.88;;;5.70;99.90;;;;;;5026869;28;20057;-82
2021/12/08 01:41:25;;;;;;;5.53;2.70;;;5.70;99.90;;;;;;5051220;28;20021;-83
2021/12/08 01:46:36;;;;;;;5.78;2.10;;;5.70;99.90;;;;;;5052982;28;20128;-82
2021/12/08 01:49:04;;;;;;;6.07;2.60;;;5.80;99.90;;;;;;5051670;28;20032;-87
2021/12/08 01:51:30;;;;;;;4.38;2.10;;;5.90;99.90;;;;;;5051821;28;20651;-82
2021/12/08 01:53:58;;;;;;;8.55;2.20;;;5.90;99.90;;;;;;5051791;28;20095;-83
2021/12/08 01:56:25;;;;;;;6.20;2.20;;;6.00;99.90;;;;;;5053522;28;20087;-83
2021/12/08 01:58:52;;;;;;;4.88;2.03;;;6.00;99.90;;;;;;5051617;28;20037;-85
2021/12/08 02:01:21;;;;;;;8.95;2.17;;;6.10;99.90;;;;;;5051960;28;20045;-85
2021/12/08 02:03:47;;;;;;;6.32;2.22;;;6.10;99.90;;;;;;5047885;28;20498;-82
2021/12/08 02:06:15;;;;;;;6.63;2.17;;;6.10;99.90;;;;;;5053335;28;20021;-84
2021/12/08 02:08:41;;;;;;;8.50;2.20;;;6.20;99.90;;;;;;5053182;28;20033;-79
2021/12/08 02:11:08;;;;;;;4.43;2.03;;;6.20;99.90;;;;;;5052825;28;20025;-80
2021/12/08 02:13:38;;;;;;;8.98;2.10;;;6.20;99.90;;;;;;5052362;28;20075;-79
2021/12/08 02:16:08;;;;;;;6.88;2.00;;;6.20;99.90;;;;;;5053268;28;20438;-80
2021/12/08 02:18:35;;;;;;;3.67;2.00;;;6.20;99.90;;;;;;5052947;28;20048;-81
2021/12/08 02:21:19;;;;;;;4.50;1.85;;;6.30;99.90;;;;;;5052362;28;20025;-79
2021/12/08 02:23:45;;;;;;;4.20;2.05;;;6.30;99.90;;;;;;5052176;28;20033;-80
2021/12/08 02:26:10;;;;;;;6.32;2.20;;;6.40;99.90;;;;;;5053363;28;20029;-79
2021/12/08 02:28:36;;;;;;;5.63;1.88;;;6.40;99.90;;;;;;5057786;28;20032;-79
2021/12/08 02:31:06;;;;;;;5.80;2.00;;;6.40;99.90;;;;;;5073388;28;20056;-79
2021/12/08 02:49:59;;;;;;;8.75;2.00;;;6.60;99.90;;;;;;5050244;28;20109;-79
2021/12/08 02:52:25;;;;;;;5.50;2.03;;;6.60;99.90;;;;;;5052114;28;20045;-78
2021/12/08 02:54:52;;;;;;;2.50;1.55;;;6.60;99.90;;;;;;5052674;28;20524;-79
2021/12/08 02:57:24;;;;;;;6.85;2.00;;;6.60;99.90;;;;;;5052114;28;20053;-79
2021/12/08 02:59:50;;;;;;;3.47;1.67;;;6.60;99.90;;;;;;5052104;28;20561;-80
2021/12/08 03:02:16;;;;;;;6.93;2.10;;;6.60;99.90;;;;;;5052393;28;20056;-80
2021/12/08 03:04:42;;;;;;;5.72;1.60;;;6.60;99.90;;;;;;5052002;28;20460;-80
2021/12/08 03:07:09;;;;;;;6.90;1.70;;;6.60;99.90;;;;;;5052243;28;20029;-79
2021/12/08 03:09:35;;;;;;;4.00;1.73;;;6.60;99.90;;;;;;5051673;28;20071;-80
2021/12/08 03:12:02;;;;;;;6.15;2.15;;;6.70;99.90;;;;;;5052078;28;20025;-79
2021/12/08 03:14:30;;;;;;;3.85;1.70;;;6.70;99.90;;;;;;5052018;28;20082;-80
2021/12/08 03:17:01;;;;;;;5.68;2.42;;;6.70;99.90;;;;;;5052523;28;20040;-80
2021/12/08 03:19:27;;;;;;;3.25;1.90;;;6.70;99.90;;;;;;5051611;28;20048;-80
2021/12/08 03:21:54;;;;;;;5.15;1.75;;;6.70;99.90;;;;;;5052054;28;20549;-79
2021/12/08 03:27:05;;;;;;;4.80;1.88;;;6.70;99.90;;;;;;5054795;28;20108;-80
2021/12/08 03:29:57;;;;;;;9.82;1.45;;;6.60;99.90;;;;;;5071090;28;20009;-80
2021/12/08 03:32:33;;;;;;;5.88;1.65;;;6.70;99.90;;;;;;5045949;28;20039;-81
2021/12/08 03:34:59;;;;;;;4.30;1.70;;;6.70;99.90;;;;;;5051736;28;20037;-80
2021/12/08 03:37:28;;;;;;;6.85;1.80;;;6.70;99.90;;;;;;5051888;28;20129;-80
2021/12/08 03:39:56;;;;;;;8.23;1.58;;;6.60;99.90;;;;;;5051371;28;20066;-80
2021/12/08 03:42:25;;;;;;;4.30;1.75;;;6.70;99.90;;;;;;5051752;28;20147;-80
2021/12/08 03:44:55;;;;;;;5.30;1.65;;;6.70;99.90;;;;;;5051335;28;20029;-80
2021/12/08 03:47:26;;;;;;;3.30;1.40;;;6.70;99.90;;;;;;5047514;28;20048;-80
2021/12/08 03:49:53;;;;;;;4.68;1.17;;;6.70;99.90;;;;;;5051470;28;20028;-79
2021/12/08 03:52:18;;;;;;;4.35;1.33;;;6.70;99.90;;;;;;5051995;28;20100;-79
2021/12/08 03:54:44;;;;;;;10.00;1.70;;;6.80;99.90;;;;;;5051307;28;20447;-80
2021/12/08 03:57:10;;;;;;;6.40;1.48;;;6.80;99.90;;;;;;5053193;28;20041;-81
2021/12/08 03:59:36;;;;;;;5.50;1.40;;;6.80;99.90;;;;;;5055351;28;20053;-81
2021/12/08 04:02:02;;;;;;;3.85;1.13;;;6.80;99.90;;;;;;5054846;28;20021;-82
2021/12/08 04:04:30;;;;;;;5.50;1.00;;;6.80;99.90;;;;;;5055208;28;20033;-81
2021/12/08 04:07:01;;;;;;;5.82;1.10;;;6.80;99.90;;;;;;5055659;28;20098;-82
2021/12/08 04:09:33;;;;;;;6.07;1.35;;;6.80;99.90;;;;;;5052107;28;20086;-81
2021/12/08 04:12:01;;;;;;;12.15;1.55;;;6.80;99.90;;;;;;5054890;28;20029;-79
2021/12/08 04:14:33;;;;;;;11.18;1.20;;;6.90;99.90;;;;;;5051362;28;20021;-79
2021/12/08 04:17:04;;;;;;;4.72;0.70;;;6.90;99.90;;;;;;5055344;28;20025;-77
2021/12/08 04:19:30;;;;;;;8.77;1.10;;;7.00;99.90;;;;;;5055229;28;20079;-77
2021/12/08 04:22:04;;;;;;;6.93;0.85;;;7.00;99.90;;;;;;5055313;28;20059;-77
2021/12/08 04:24:29;;;;;;;8.18;0.70;;;7.00;99.90;;;;;;5061254;28;20029;-77
2021/12/08 04:27:02;;;;;;;4.90;0.90;;;7.00;99.90;;;;;;5054472;28;20110;-77
2021/12/08 04:29:32;;;;;;;12.10;1.20;;;7.10;99.90;;;;;;5032722;28;20079;-77
2021/12/08 04:31:59;;;;;;;8.82;1.10;;;7.10;99.90;;;;;;5017870;28;20029;-77
2021/12/08 04:34:29;;;;;;;3.63;1.00;;;7.10;99.90;;;;;;5025628;28;20121;-77
2021/12/08 04:37:00;;;;;;;6.13;0.95;;;7.10;99.90;;;;;;5029645;28;20029;-77
2021/12/08 04:39:47;;;;;;;5.50;0.90;;;7.10;99.90;;;;;;5016818;28;20041;-77
2021/12/08 04:42:18;;;;;;;8.45;1.00;;;7.10;99.90;;;;;;5019067;28;20076;-77
2021/12/08 04:44:51;;;;;;;5.80;1.00;;;7.10;99.90;;;;;;5044058;28;20029;-78
2021/12/08 05:08:42;;;;;;;8.32;0.82;;;7.00;99.40;;;;;;5051236;28;20036;-78
2021/12/08 05:11:31;;;;;;;6.95;0.98;;;7.10;99.40;;;;;;5054478;28;20079;-78
2021/12/08 05:14:17;;;;;;;8.73;0.90;;;7.10;99.30;;;;;;5053326;28;20043;-79
2021/12/08 05:16:46;;;;;;;11.35;1.00;;;7.00;99.20;;;;;;5050445;28;20112;-79
2021/12/08 05:19:17;;;;;;;5.45;0.60;;;7.00;99.20;;;;;;5054515;28;20041;-79
2021/12/08 05:21:54;;;;;;;8.98;0.98;;;7.00;99.10;;;;;;5056744;28;20032;-78
2021/12/08 05:24:32;;;;;;;6.63;0.80;;;6.90;99.00;;;;;;5065533;28;20021;-79
2021/12/08 05:27:26;;;;;;;4.13;1.02;;;6.80;99.00;;;;;;5075145;28;20036;-78
2021/12/08 05:30:00;;;;;;;7.72;1.25;;;6.80;99.10;;;;;;5053776;28;20044;-78
2021/12/08 05:32:26;;;;;;;9.05;1.17;;;6.80;99.20;;;;;;5053849;28;20468;-78
2021/12/08 05:34:52;;;;;;;8.77;0.95;;;6.70;99.30;;;;;;5053754;28;20029;-77
2021/12/08 05:37:21;;;;;;;8.25;1.25;;;6.80;99.40;;;;;;5053335;28;20442;-77
2021/12/08 05:39:48;;;;;;;6.00;0.60;;;6.80;99.50;;;;;;5053296;28;20127;-78
2021/12/08 05:42:20;;;;;;;7.20;0.82;;;6.80;99.50;;;;;;5052901;28;20032;-78
2021/12/08 05:44:46;;;;;;;5.50;0.60;;;6.80;99.50;;;;;;5053235;28;20056;-78
2021/12/08 05:47:19;;;;;;;6.57;0.85;;;6.90;99.50;;;;;;5053733;28;20071;-78
2021/12/08 05:49:46;;;;;;;5.43;1.10;;;6.90;99.40;;;;;;5053332;28;20025;-78
2021/12/08 05:52:13;;;;;;;7.32;1.92;;;6.90;99.20;;;;;;5053529;28;20909;-78
2021/12/08 05:54:42;;;;;;;9.30;1.50;;;6.80;99.10;;;;;;5053241;28;20104;-78
2021/12/08 05:57:22;;;;;;;10.95;2.40;;;6.80;99.00;;;;;;5052228;28;20076;-78
2021/12/08 05:59:49;;;;;;;13.07;3.17;;;6.80;98.90;;;;;;5052741;28;20047;-77
2021/12/08 06:02:20;;;;;;;11.30;3.00;;;6.80;98.80;;;;;;5052891;28;20031;-77
2021/12/08 06:04:47;;;;;;;8.60;1.92;;;6.70;98.90;;;;;;5053157;28;20032;-78
2021/12/08 06:07:14;;;;;;;8.07;1.20;;;6.70;98.90;;;;;;5052618;28;20499;-79
2021/12/08 06:09:41;;;;;;;9.00;1.02;;;6.70;98.70;;;;;;5053022;28;20534;-79
2021/12/08 06:12:08;;;;;;;5.80;0.70;;;6.70;98.70;;;;;;5052811;28;20036;-80
2021/12/08 06:14:35;;;;;;;9.20;0.88;;;6.60;98.70;;;;;;5053229;28;20025;-78
2021/12/08 06:17:06;;;;;;;11.38;1.17;;;6.70;98.60;;;;;;5052510;28;20074;-77
2021/12/08 06:19:32;;;;;;;4.82;0.80;;;6.60;98.50;;;;;;5051366;28;20032;-80
2021/12/08 06:21:58;;;;;;;5.22;0.50;;;6.60;98.40;;;;;;5059767;28;20028;-79
2021/12/08 06:24:24;;;;;;;6.35;0.75;;;6.60;98.40;;;;;;5057349;28;20029;-82
2021/12/08 06:26:52;;;;;;;8.93;0.82;;;6.60;98.30;;;;;;5053474;28;20021;-82
2021/12/08 06:29:19;;;;;;;8.55;0.63;;;6.60;98.20;;;;;;5052535;28;20464;-81
2021/12/08 06:31:49;;;;;;;18.70;0.95;;;6.50;98.10;;;;;;5052302;28;20028;-81
2021/12/08 06:34:16;;;;;;;6.53;0.75;;;6.50;98.10;;;;;;5052009;28;20473;-82
2021/12/08 06:37:00;;;;;;;8.43;0.80;;;6.50;98.10;;;;;;5052993;28;20025;-82
2021/12/08 06:39:30;;;;;;;10.43;1.35;;;6.50;98.20;;;;;;5053940;28;20055;-80
2021/12/08 06:42:01;;;;;;;14.25;1.20;;;6.60;98.00;;;;;;5052378;28;20027;-79
2021/12/08 06:44:31;;;;;;;11.68;1.10;;;6.50;97.80;;;;;;5046888;28;20500;-77
2021/12/08 06:46:58;;;;;;;7.22;0.80;;;6.50;97.80;;;;;;5052325;28;20416;-77
2021/12/08 06:49:25;;;;;;;10.35;1.00;;;6.50;97.80;;;;;;5051943;28;20025;-78
2021/12/08 06:51:59;;;;;;;7.00;0.70;;;6.50;97.70;;;;;;5052093;28;20086;-77
2021/12/08 06:54:29;;;;;;;12.45;2.22;;;6.50;97.70;;;;;;5047743;28;20020;-78
2021/12/08 06:57:20;;;;;;;8.18;1.08;;;6.50;97.70;;;;;;5052349;28;20048;-77
2021/12/08 06:59:59;;;;;;;10.15;0.90;;;6.60;97.80;;;;;;5051390;28;20119;-77
2021/12/08 07:05:31;;;;;;;7.88;1.00;;;6.50;97.60;;;;;;5049328;28;20373;-78
2021/12/08 07:08:05;;;;;;;7.15;0.90;;;6.50;97.30;;;;;;5049845;28;20686;-77
2021/12/08 07:10:37;;;;;;;9.80;1.27;;;6.50;97.40;;;;;;5051298;28;20031;-87
2021/12/08 07:13:11;;;;;;;15.73;1.90;;;6.50;97.50;;;;;;5049903;28;20028;-79
2021/12/08 07:15:36;;;;;;;7.82;0.80;;;6.50;97.40;;;;;;5046128;28;20593;-76
2021/12/08 07:18:11;;;;;;;10.55;1.25;;;6.60;97.40;;;;;;5055476;28;20040;-75
2021/12/08 07:20:48;;;;;;;10.63;1.55;;;6.50;97.40;;;;;;5070257;28;20435;-77
2021/12/08 07:23:25;;;;;;;11.00;1.05;;;6.50;97.40;;;;;;5056524;28;20071;-76
2021/12/08 07:25:54;;;;;;;7.95;0.90;;;6.50;97.10;;;;;;5046993;28;20480;-76
2021/12/08 07:28:23;;;;;;;11.05;1.17;;;6.50;97.20;;;;;;5049427;28;20503;-77
2021/12/08 07:31:04;;;;;;;10.85;1.23;;;6.50;97.10;;;;;;5030196;28;20025;-75
2021/12/08 07:33:30;;;;;;;11.20;1.20;;;6.50;97.10;;;;;;5028505;28;20037;-73
2021/12/08 07:35:59;;;;;;;15.55;1.20;;;6.40;96.90;;;;;;5028876;28;20423;-75
2021/12/08 07:38:27;;;;;;;8.80;1.13;;;6.40;96.90;;;;;;5036133;28;20033;-76
2021/12/08 07:41:19;;;;;;;9.93;1.10;;;6.40;96.90;;;;;;5043115;28;20074;-74
2021/12/08 07:43:50;;;;;;;9.02;1.38;;;6.50;96.80;;;;;;5046861;28;20033;-78
2021/12/08 07:46:29;;;;;;;14.68;1.45;;;6.50;96.70;;;;;;5049246;28;20029;-76
2021/12/08 07:49:01;;;;;;;10.55;1.42;;;6.50;96.60;;;;;;5050452;28;20091;-77
2021/12/08 07:51:32;;;;;;;13.00;1.35;;;6.50;96.60;;;;;;5041843;28;20029;-79
2021/12/08 07:54:05;;;;;;;10.90;1.20;;;6.70;98.20;;;;;;5049545;28;20032;-79
2021/12/08 07:56:32;;;;;;;;;;;6.70;96.90;;;;;;5052904;28;20049;-78
2021/12/08 07:59:10;;;;;;;12.57;1.02;;;6.70;96.50;;;;;;5054625;28;20361;-81
2021/12/08 08:01:42;;;;;;;9.15;0.88;;;6.60;96.40;;;;;;5052398;28;20487;-80
2021/12/08 08:04:11;;;;;;;14.07;1.15;;;6.60;96.40;;;;;;5036855;28;20109;-84
2021/12/08 08:06:42;;;;;;;8.05;1.15;;;6.60;96.30;;;;;;5037060;28;20022;-84
2021/12/08 08:09:14;;;;;;;7.32;1.58;;;6.60;96.30;;;;;;5036988;28;20038;-82
2021/12/08 08:11:44;;;;;;;11.05;1.40;;;6.50;96.20;;;;;;5037222;28;20032;-82
2021/12/08 08:14:12;;;;;;;12.20;1.13;;;6.50;96.40;;;;;;5037230;28;20040;-80
2021/12/08 08:16:39;;;;;;;10.05;0.93;;;6.50;96.40;;;;;;5040702;28;20029;-83
2021/12/08 08:19:12;;;;;;;14.07;2.13;;;6.60;96.50;;;;;;5039325;28;20124;-77
2021/12/08 08:21:52;;;;;;;11.27;1.23;;;6.50;96.40;;;;;;5036182;28;20056;-78
2021/12/08 08:24:19;;;;;;;12.95;1.30;;;6.50;96.40;;;;;;5036317;28;20060;-77
2021/12/08 08:26:48;;;;;;;9.25;1.20;;;6.60;96.40;;;;;;5036242;28;20084;-76
2021/12/08 08:29:14;;;;;;;9.27;0.95;;;6.60;96.50;;;;;;5035890;28;20029;-76
2021/12/08 08:31:59;;;;;;;13.55;1.52;;;6.60;96.40;;;;;;5035844;28;20084;-76
2021/12/08 08:34:27;;;;;;;10.18;1.02;;;6.60;96.60;;;;;;5036167;28;20021;-76
2021/12/08 08:36:52;;;;;;;11.63;1.33;;;6.60;96.60;;;;;;5035543;28;20026;-75
2021/12/08 08:39:28;;;;;;;10.38;1.20;;;6.60;96.30;;;;;;5035575;28;20087;-77
2021/12/08 08:42:00;;;;;;;12.68;1.30;;;6.50;96.40;;;;;;5034554;28;20473;-78
2021/12/08 08:44:32;;;;;;;12.13;1.13;;;6.50;96.30;;;;;;5035603;28;20064;-79
2021/12/08 08:47:05;;;;;;;8.43;1.15;;;6.50;96.40;;;;;;5035259;28;20025;-77
2021/12/08 08:49:33;;;;;;;12.00;1.58;;;6.50;96.40;;;;;;5035477;28;20025;-77
2021/12/08 08:52:05;;;;;;;9.95;1.30;;;6.40;96.70;;;;;;5035480;28;20097;-78
2021/12/08 08:54:36;;;;;;;5.60;0.68;;;6.40;96.70;;;;;;5035545;28;20081;-78
2021/12/08 08:57:11;;;;;;;8.18;1.50;;;6.40;96.60;;;;;;5044286;28;20484;-78
2021/12/08 08:59:45;;;;;;;10.10;1.02;;;6.50;96.40;;;;;;5036667;28;20042;-78
2021/12/08 09:02:17;;;;;;;11.73;1.15;;;6.50;96.40;;;;;;5035684;28;20033;-78
2021/12/08 09:04:57;;;;;;;13.02;1.48;;;6.40;96.10;;;;;;5035677;28;20057;-78
2021/12/08 09:07:28;;;;;;;11.68;1.20;;;6.40;96.20;;;;;;5035173;28;20033;-78
2021/12/08 09:09:56;;;;;;;8.23;1.08;;;6.40;96.10;;;;;;5035620;28;20022;-79
2021/12/08 09:12:25;;;;;;;10.32;1.35;;;6.50;96.00;;;;;;5048582;28;20044;-79
2021/12/08 09:15:03;;;;;;;8.23;1.00;;;6.50;95.90;;;;;;5044036;28;20081;-81
2021/12/08 09:17:34;;;;;;;12.43;1.98;;;6.60;95.80;;;;;;5055840;28;20098;-81
2021/12/08 09:20:06;;;;;;;9.10;1.13;;;6.60;95.50;;;;;;5054845;28;20091;-76
2021/12/08 09:22:56;;;;;;;9.98;1.42;;;6.70;95.60;;;;;;5054588;28;20096;-76
2021/12/08 09:25:49;;;;;;;6.50;1.60;;;6.80;95.20;;;;;;5049472;28;20035;-76
2021/12/08 09:28:21;;;;;;;6.15;0.80;;;6.70;95.20;;;;;;5048973;28;20033;-76
2021/12/08 09:31:02;;;;;;;9.90;0.98;;;6.80;95.10;;;;;;5034959;28;20174;-80
2021/12/08 09:33:38;;;;;;;11.10;1.10;;;6.90;95.00;;;;;;5044123;28;20056;-79
2021/12/08 09:36:09;;;;;;;10.02;1.20;;;6.90;95.00;;;;;;5047181;28;20021;-80
2021/12/08 09:38:43;;;;;;;7.50;1.27;;;7.00;94.90;;;;;;5044824;28;20026;-83
2021/12/08 09:41:16;;;;;;;8.10;1.27;;;7.10;94.80;;;;;;5039553;28;20100;-78
2021/12/08 09:44:04;;;;;;;8.18;1.05;;;7.20;94.60;;;;;;5053565;28;20033;-78
2021/12/08 09:46:41;;;;;;;8.70;1.00;;;7.30;94.20;;;;;;5049034;28;20033;-77
2021/12/08 09:49:09;;;;;;;9.20;1.30;;;7.30;94.10;;;;;;5052744;28;20342;-77
2021/12/08 09:51:36;;;;;;;12.68;1.58;;;7.30;94.00;;;;;;5053008;28;20048;-77
2021/12/08 09:54:01;;;;;;;7.25;0.98;;;7.40;94.00;;;;;;5051539;28;20021;-80
2021/12/08 09:56:27;;;;;;;10.20;1.42;;;7.40;94.00;;;;;;5052713;28;20048;-77
2021/12/08 09:58:56;;;;;;;11.48;1.38;;;7.50;93.50;;;;;;5050601;28;20081;-79
2021/12/08 10:01:23;;;;;;;9.25;1.27;;;7.50;93.50;;;;;;5044594;28;20033;-78
2021/12/08 10:03:51;;;;;;;8.82;1.15;;;7.60;93.70;;;;;;5035855;28;20088;-78
2021/12/08 10:06:19;;;;;;;9.50;1.52;;;7.70;93.40;;;;;;5034512;28;20049;-78
2021/12/08 10:08:46;;;;;;;5.50;0.88;;;7.80;93.30;;;;;;5034303;28;20061;-78
2021/12/08 10:11:12;;;;;;;9.48;0.70;;;7.80;93.10;;;;;;5035451;28;20369;-77
2021/12/08 10:13:39;;;;;;;8.02;1.63;;;7.90;92.80;;;;;;5035466;28;20113;-78
2021/12/08 10:16:05;;;;;;;9.70;1.45;;;7.90;93.00;;;;;;5034409;28;20029;-78
2021/12/08 10:18:31;;;;;;;8.00;1.42;;;7.90;92.70;;;;;;5033950;28;20029;-77
2021/12/08 10:20:57;;;;;;;8.68;1.50;;;7.90;92.60;;;;;;5049808;28;20486;-77
2021/12/08 10:23:32;;;;;;;7.65;0.95;;;8.00;92.40;;;;;;5041286;28;20018;-78
2021/12/08 10:26:07;;;;;;;7.82;1.00;;;7.90;92.50;;;;;;5049431;28;20166;-78
2021/12/08 10:28:39;;;;;;;8.55;0.80;;;7.90;92.20;;;;;;5052859;28;20021;-77
2021/12/08 10:31:08;;;;;;;6.63;0.80;;;8.00;92.40;;;;;;5052361;28;20029;-78
2021/12/08 10:39:08;;;;;;;10.48;0.98;;;8.20;91.80;;;;;;5030084;28;20457;-77
2021/12/08 10:41:48;;;;;;;8.13;0.82;;;8.20;91.60;;;;;;5022367;28;20101;-77
2021/12/08 10:44:16;;;;;;;7.47;0.90;;;8.20;91.50;;;;;;5019113;28;20044;-78
2021/12/08 10:46:42;;;;;;;6.78;0.95;;;8.20;91.30;;;;;;5031480;28;20022;-78
2021/12/08 10:49:21;;;;;;;10.77;1.45;;;8.30;91.70;;;;;;5051886;28;20438;-78
2021/12/08 10:54:33;;;;;;;6.07;0.63;;;8.30;91.50;;;;;;5051855;28;20110;-78
2021/12/08 10:57:03;;;;;;;5.75;0.70;;;8.30;91.30;;;;;;5050986;28;20160;-78
2021/12/08 10:59:53;;;;;;;7.50;0.80;;;8.30;91.30;;;;;;5051344;28;20041;-78
2021/12/08 11:02:44;;;;;;;4.00;0.60;;;8.40;91.20;;;;;;5051814;28;20078;-79
2021/12/08 11:05:40;;;;;;;5.00;0.60;;;8.40;91.40;;;;;;5051083;28;20025;-78
2021/12/08 11:08:14;;;;;;;7.93;0.70;;;8.40;91.70;;;;;;5054727;28;20041;-78
2021/12/08 11:11:02;;;;;;;6.25;0.73;;;8.40;91.50;;;;;;5066085;28;20036;-79
2021/12/08 11:13:40;;;;;;;4.85;0.60;;;8.50;91.50;;;;;;5052125;28;20025;-78
2021/12/08 11:16:16;;;;;;;8.05;0.98;;;8.50;91.40;;;;;;5046634;28;20033;-79
2021/12/08 11:18:49;;;;;;;7.57;1.08;;;8.60;91.00;;;;;;5050408;28;20132;-78
2021/12/08 11:21:29;;;;;;;7.32;0.85;;;8.50;91.00;;;;;;5047757;28;20087;-78
2021/12/08 11:23:59;;;;;;;6.53;0.80;;;8.50;91.30;;;;;;5049353;28;20094;-79
2021/12/08 11:26:38;;;;;;;8.65;0.90;;;8.50;91.30;;;;;;5051868;28;20021;-79
2021/12/08 11:29:14;;;;;;;7.15;1.20;;;8.50;91.50;;;;;;5042013;28;20080;-77
2021/12/08 11:32:24;;;;;;;10.07;1.58;;;8.50;91.50;;;;;;5029575;28;20022;-78
2021/12/08 11:34:51;;;;;;;8.18;1.17;;;8.50;91.10;;;;;;5036873;28;20029;-82
2021/12/08 11:37:22;;;;;;;7.18;1.25;;;8.50;91.20;;;;;;5048511;28;20029;-78
2021/12/08 11:39:55;;;;;;;9.65;1.08;;;8.50;91.50;;;;;;5048490;28;20384;-78
2021/12/08 11:42:25;;;;;;;6.57;0.98;;;8.50;91.50;;;;;;5043555;28;20047;-77
2021/12/08 11:44:55;;;;;;;5.53;1.10;;;8.40;91.50;;;;;;5051775;28;20089;-75
2021/12/08 11:47:26;;;;;;;5.72;0.82;;;8.40;91.20;;;;;;5051324;28;20021;-75
2021/12/08 11:49:58;;;;;;;6.10;1.15;;;8.30;91.60;;;;;;5050598;28;20078;-76
2021/12/08 11:52:29;;;;;;;6.80;1.10;;;8.30;91.50;;;;;;5051224;28;20040;-77
2021/12/08 11:55:01;;;;;;;10.63;1.20;;;8.20;91.50;;;;;;5050311;28;20028;-75
2021/12/08 11:57:37;;;;;;;8.45;0.90;;;8.20;91.50;;;;;;5049212;28;20091;-75
2021/12/08 12:00:14;;;;;;;7.45;0.70;;;8.20;91.70;;;;;;5049591;28;20060;-75
2021/12/08 12:02:43;;;;;;;9.65;1.17;;;8.10;91.70;;;;;;5050198;28;20072;-73
2021/12/08 12:05:13;;;;;;;9.35;1.20;;;8.10;91.70;;;;;;5062251;28;20025;-76
2021/12/08 12:07:39;;;;;;;9.32;0.82;;;8.10;91.70;;;;;;5054324;28;20083;-76
2021/12/08 12:10:07;;;;;;;7.53;1.02;;;8.00;91.80;;;;;;5050788;28;20036;-75
2021/12/08 12:12:37;;;;;;;8.73;1.00;;;8.00;92.10;;;;;;5050645;28;20028;-75
2021/12/08 12:15:07;;;;;;;6.72;1.10;;;7.90;91.80;;;;;;5049222;28;20091;-82
2021/12/08 12:17:33;;;;;;;4.82;0.77;;;7.90;92.00;;;;;;5050620;28;20029;-74
2021/12/08 12:20:15;;;;;;;6.47;0.75;;;7.90;92.10;;;;;;5042786;28;20439;-75
2021/12/08 12:23:06;;;;;;;6.30;0.80;;;7.90;92.20;;;;;;5041108;28;20036;-74
2021/12/08 12:26:01;;;;;;;7.13;1.10;;;8.00;92.40;;;;;;5036496;28;20044;-75
2021/12/08 12:28:55;;;;;;;6.43;0.93;;;8.00;92.40;;;;;;5045157;28;20029;-74
2021/12/08 12:31:42;;;;;;;5.30;0.70;;;8.10;92.40;;;;;;5028752;28;20022;-75
2021/12/08 12:34:28;;;;;;;5.80;0.90;;;8.10;92.40;;;;;;5035664;28;20064;-74
2021/12/08 12:36:56;;;;;;;7.97;1.23;;;8.10;92.40;;;;;;5035619;28;20033;-74
2021/12/08 12:39:27;;;;;;;8.30;0.98;;;8.10;92.30;;;;;;5035395;28;20033;-76
2021/12/08 12:41:59;;;;;;;8.95;0.93;;;8.10;92.20;;;;;;5035581;28;20044;-76
2021/12/08 12:44:30;;;;;;;7.95;0.98;;;8.10;92.40;;;;;;5050229;28;20025;-75
2021/12/08 12:47:25;;;;;;;11.05;1.00;;;8.10;92.50;;;;;;5053868;28;20131;-74
2021/12/08 12:50:00;;;;;;;7.95;0.95;;;8.10;92.30;;;;;;5054827;28;20028;-74
2021/12/08 12:52:38;;;;;;;9.70;0.95;;;8.10;92.30;;;;;;5054018;28;20025;-75
2021/12/08 12:55:20;;;;;;;4.32;0.80;;;8.10;92.20;;;;;;5044732;28;20044;-76
2021/12/08 12:58:01;;;;;;;9.38;1.23;;;8.10;92.30;;;;;;5051292;28;20408;-74
2021/12/08 13:00:41;;;;;;;5.18;0.82;;;8.10;92.20;;;;;;5051001;28;20034;-78
2021/12/08 13:03:08;;;;;;;8.88;1.60;;;8.10;92.20;;;;;;5055054;28;20030;-78
2021/12/08 13:05:51;;;;;;;10.38;1.25;;;8.20;92.20;;;;;;5033486;28;20423;-79
2021/12/08 13:08:39;;;;;;;6.32;1.30;;;8.20;91.90;;;;;;5022991;28;20036;-79
2021/12/08 13:11:29;;;;;;;10.65;0.95;;;8.20;91.70;;;;;;5037050;28;20048;-79
2021/12/08 13:13:56;;;;;;;10.45;1.42;;;8.20;91.80;;;;;;5054229;28;20048;-78
2021/12/08 13:16:34;;;;;;;5.80;0.93;;;8.30;91.90;;;;;;5053829;28;20029;-77
2021/12/08 13:19:06;;;;;;;4.13;0.82;;;8.40;91.60;;;;;;5053140;28;20049;-77
2021/12/08 13:21:42;;;;;;;4.63;0.80;;;8.50;91.40;;;;;;5053896;28;20056;-75
2021/12/08 13:24:42;;;;;;;7.88;1.02;;;8.60;91.30;;;;;;5053389;28;20021;-78
2021/12/08 13:27:16;;;;;;;5.40;1.08;;;8.60;91.30;;;;;;5053684;28;20025;-79
2021/12/08 13:29:46;;;;;;;9.23;1.05;;;8.50;91.20;;;;;;5053760;28;20108;-79
2021/12/08 13:32:13;;;;;;;5.07;1.23;;;8.50;91.10;;;;;;5053552;28;20048;-79
2021/12/08 13:34:57;;;;;;;11.02;1.23;;;8.50;91.20;;;;;;5050105;28;20503;-79
2021/12/08 13:37:25;;;;;;;5.03;1.00;;;8.50;91.10;;;;;;5053299;28;20033;-75
2021/12/08 13:39:53;;;;;;;5.85;0.90;;;8.50;91.10;;;;;;5053251;28;20043;-76
2021/12/08 13:42:28;;;;;;;10.18;1.02;;;8.50;91.40;;;;;;5052802;28;20104;-74
2021/12/08 13:45:01;;;;;;;2.97;0.90;;;8.40;91.30;;;;;;5052451;28;20040;-75
2021/12/08 13:47:36;;;;;;;6.13;0.60;;;8.50;91.60;;;;;;5052936;28;20075;-76
2021/12/08 13:50:23;;;;;;;4.85;0.93;;;8.50;92.20;;;;;;5053279;28;20028;-75
2021/12/08 13:53:05;;;;;;;5.57;0.60;;;8.50;91.60;;;;;;5053036;28;20031;-76
2021/12/08 13:55:33;;;;;;;6.63;0.88;;;8.50;91.50;;;;;;5049778;28;20044;-82
2021/12/08 13:58:02;;;;;;;5.53;0.90;;;8.60;91.50;;;;;;5053540;28;20044;-79
2021/12/08 14:00:38;;;;;;;4.10;1.00;;;8.60;91.40;;;;;;5056591;28;20052;-80
2021/12/08 14:03:08;;;;;;;4.57;0.80;;;8.60;91.30;;;;;;5053115;28;20021;-84
2021/12/08 14:05:36;;;;;;;8.00;0.85;;;8.70;91.20;;;;;;5052641;28;20499;-77
2021/12/08 14:08:25;;;;;;;5.93;1.15;;;8.80;91.20;;;;;;5052540;28;20040;-75
2021/12/08 14:10:58;;;;;;;7.30;0.70;;;8.80;90.80;;;;;;5052320;28;20048;-75
2021/12/08 14:13:26;;;;;;;8.17;0.90;;;8.80;90.60;;;;;;5048648;28;20071;-75
2021/12/08 14:15:56;;;;;;;5.07;0.50;;;8.80;90.50;;;;;;5051499;28;20268;-74